»·PEaware :: SKW4578 KSFO-KTVL

SKW4578 :: KSFO-KTVL

FLIGHT INFORMATION

Flight Status: Arrived
Operator:
SkyWest Airlines
More flights by this operator :: More flights under this callsign
Pilot: Anonymous 41493 (41493)
Aircraft: CANADAIR CL-600 CRJ-700
(CRJ7)
More flights by this aircraft type
Origin: KSFO San Francisco Intl
United States
Destination: KTVL Lake Tahoe
United States
More flights between these airports :: More routes between these airports
Route: TRUKN2 ORRCA SWR
File this flight plan on PilotEdge
Remarks: RMK / SIMBRIEF
Altitude:
(Current/Filed)
25,000ft
Speed:
(Current/Filed)
409kts
Departed: 02-Oct-22 01:58 PM
Arrived: 02-Oct-22 02:28 PM
Distance/Time
Traveled:
136nm/0:30
Distance/Time
To Go:
Arrived

Flight Plot

Page will automatically refresh every two minutes.

Flight plan parsing failed; only flown route is shown


Map Options




Map Legend


Flown Route
Filed Route
Departure Airport
Arrival Airport
Navaid (VOR, NDB)
Fix

Horizontal Profiles

Position Reports

Time Latitude Longitude Heading Altitude Ground
Speed
02-Oct-22 13:41 37.614324 -122.382736 26 13ft 0kts
02-Oct-22 13:42 37.614324 -122.382736 26 13ft 0kts
02-Oct-22 13:43 37.614324 -122.382736 26 13ft 0kts
02-Oct-22 13:44 37.614324 -122.382736 26 13ft 0kts
02-Oct-22 13:46 37.614324 -122.382736 26 13ft 0kts
02-Oct-22 13:47 37.614324 -122.382736 26 13ft 0kts
02-Oct-22 13:48 37.614324 -122.382736 26 13ft 0kts
02-Oct-22 13:49 37.613924 -122.383019 42 12ft 2kts
02-Oct-22 13:50 37.613883 -122.383257 107 12ft 0kts
02-Oct-22 13:51 37.613883 -122.383257 107 12ft 0kts
02-Oct-22 13:52 37.613857 -122.383184 115 12ft 3kts
02-Oct-22 13:53 37.612110 -122.382654 207 15ft 9kts
02-Oct-22 13:54 37.609296 -122.384726 201 17ft 13kts
02-Oct-22 13:55 37.608457 -122.383838 117 20ft 0kts
02-Oct-22 13:56 37.608457 -122.383838 117 20ft 0kts
02-Oct-22 13:57 37.608391 -122.383681 118 21ft 5kts
02-Oct-22 13:58 37.619716 -122.375468 26 34ft 170kts
02-Oct-22 13:59 37.658719 -122.324576 62 3271ft 234kts
02-Oct-22 14:00 37.697601 -122.253485 55 6869ft 253kts
02-Oct-22 14:01 37.738153 -122.175420 56 9671ft 293kts
02-Oct-22 14:02 37.802209 -122.115126 13 12545ft 319kts
02-Oct-22 14:03 37.886454 -122.065462 32 15450ft 344kts
02-Oct-22 14:04 37.964190 -121.991436 35 18565ft 361kts
02-Oct-22 14:05 38.054214 -121.909502 34 19051ft 408kts
02-Oct-22 14:06 38.144284 -121.827216 34 19013ft 392kts
02-Oct-22 14:06 38.218801 -121.758777 34 20981ft 403kts
02-Oct-22 14:08 38.332692 -121.654368 34 23221ft 446kts
02-Oct-22 14:09 38.435267 -121.559205 36 24853ft 471kts
02-Oct-22 14:10 38.516343 -121.428229 53 25004ft 469kts
02-Oct-22 14:11 38.592922 -121.295679 50 24993ft 461kts
02-Oct-22 14:11 38.656899 -121.186267 51 24995ft 464kts
02-Oct-22 14:12 38.734212 -121.051789 51 25034ft 471kts
02-Oct-22 14:14 38.824882 -120.893460 50 25081ft 473kts
02-Oct-22 14:15 38.903457 -120.757863 51 25061ft 474kts
02-Oct-22 14:15 38.968327 -120.643918 50 25049ft 474kts
02-Oct-22 14:16 39.046594 -120.506611 50 25080ft 474kts
02-Oct-22 14:17 39.121959 -120.373040 50 23130ft 436kts
02-Oct-22 14:18 39.183153 -120.249650 66 19802ft 378kts
02-Oct-22 14:19 39.207422 -120.130380 73 17143ft 316kts
02-Oct-22 14:20 39.224705 -120.026811 89 14694ft 285kts
02-Oct-22 14:21 39.175086 -119.972928 182 12188ft 237kts
02-Oct-22 14:22 39.115952 -119.970777 182 10736ft 193kts
02-Oct-22 14:23 39.051638 -119.968593 181 9606ft 270kts
02-Oct-22 14:24 38.986219 -119.967356 194 8529ft 184kts
02-Oct-22 14:25 38.942333 -119.979224 199 7486ft 149kts
02-Oct-22 14:26 38.901153 -119.993227 190 6280ft 142kts
02-Oct-22 14:27 38.882673 -119.999219 288 6264ft 16kts
02-Oct-22 14:28 38.887267 -119.998327 12 6263ft 20kts
02-Oct-22 14:29 38.891884 -119.996988 13 6266ft 12kts
02-Oct-22 14:30 38.892766 -119.998018 12 6268ft 0kts
02-Oct-22 14:31 38.892782 -119.998013 12 6268ft 0kts
02-Oct-22 14:32 38.892782 -119.998013 12 6268ft 0kts
02-Oct-22 14:33 38.892782 -119.998013 12 6268ft 0kts

Navigation Log

Ident Type
Flight plan parsing failed, navigation log unavailable